Time;durP1;ratioP1;P1;durP2;ratioP2;P2;SDS_P1;SDS_P2;PMS_P1;PMS_P2;Temp;Humidity;BMP_temperature;BMP_pressure;BME280_temperature;BME280_humidity;BME280_pressure;Samples;Min_cycle;Max_cycle;Signal;HPM_P1;HPM_P2
2021/03/19 00:04:00;;;;;;;7.13;6.43;;;5.60;38.70;;;;;;10433261;28;20233;-74
2021/03/19 00:09:06;;;;;;;7.07;6.47;;;5.70;38.70;;;;;;10436577;28;20221;-74
2021/03/19 00:14:10;;;;;;;6.53;5.93;;;5.60;38.70;;;;;;10426412;28;20701;-74
2021/03/19 02:08:04;;;;;;;7.50;6.80;;;4.90;39.50;;;;;;10476087;28;20228;-65
2021/03/19 02:13:44;;;;;;;8.70;7.23;;;4.80;39.70;;;;;;10493270;28;20228;-65
2021/03/19 02:19:23;;;;;;;9.03;8.13;;;4.80;39.90;;;;;;10492141;28;20244;-69
2021/03/19 02:25:08;;;;;;;7.53;6.83;;;4.80;40.10;;;;;;10487187;28;20224;-69
2021/03/19 02:30:48;;;;;;;7.70;7.00;;;4.90;40.10;;;;;;10485067;28;20212;-69
2021/03/19 02:35:54;;;;;;;12.47;11.37;;;5.00;40.10;;;;;;10494675;28;20667;-69
2021/03/19 02:40:56;;;;;;;13.47;11.43;;;5.00;39.70;;;;;;10488730;28;20231;-69
2021/03/19 02:45:58;;;;;;;10.83;9.83;;;5.10;39.40;;;;;;10486177;28;20224;-69
2021/03/19 02:51:05;;;;;;;11.23;10.03;;;5.10;39.30;;;;;;10493894;28;20299;-69
2021/03/19 02:56:11;;;;;;;10.57;9.57;;;5.10;39.70;;;;;;10492308;28;20217;-69
2021/03/19 03:01:13;;;;;;;10.03;9.13;;;5.20;39.80;;;;;;10494287;28;20319;-69
2021/03/19 03:06:17;;;;;;;10.40;9.40;;;5.10;39.50;;;;;;10489731;28;20711;-69
2021/03/19 03:11:19;;;;;;;11.20;10.10;;;5.10;39.70;;;;;;10489141;28;20370;-69
2021/03/19 03:16:22;;;;;;;9.77;8.87;;;5.10;39.60;;;;;;10488784;28;20228;-69
2021/03/19 03:21:25;;;;;;;10.03;9.13;;;5.20;39.80;;;;;;10487541;28;20282;-69
2021/03/19 03:26:29;;;;;;;10.33;9.23;;;5.20;39.90;;;;;;10493263;28;20232;-69
2021/03/19 03:31:32;;;;;;;9.50;8.60;;;5.20;39.80;;;;;;10488017;28;20726;-68
2021/03/19 03:36:38;;;;;;;9.93;8.93;;;5.20;39.70;;;;;;10492777;28;20248;-70
2021/03/19 03:41:41;;;;;;;8.90;8.10;;;5.30;39.90;;;;;;10489584;28;20281;-68
2021/03/19 03:46:45;;;;;;;10.17;9.27;;;5.30;39.80;;;;;;10488476;28;20238;-71
2021/03/19 03:51:49;;;;;;;8.40;7.70;;;5.40;39.80;;;;;;10490108;28;20230;-69
2021/03/19 03:56:51;;;;;;;7.67;6.97;;;5.30;39.80;;;;;;10492362;28;20224;-69
2021/03/19 04:01:53;;;;;;;9.17;8.37;;;5.40;39.80;;;;;;10487544;28;20228;-69
2021/03/19 04:06:58;;;;;;;9.53;8.70;;;5.40;39.80;;;;;;10485336;28;20316;-71
2021/03/19 04:12:00;;;;;;;9.87;8.93;;;5.40;39.80;;;;;;10479075;28;20217;-71
2021/03/19 04:17:07;;;;;;;8.33;7.43;;;5.50;39.80;;;;;;10485209;28;20311;-69
2021/03/19 04:22:10;;;;;;;10.20;9.20;;;5.50;40.10;;;;;;10486965;28;20730;-69
2021/03/19 04:27:14;;;;;;;9.47;8.57;;;5.50;39.80;;;;;;10490833;28;20224;-69
2021/03/19 04:32:17;;;;;;;9.70;8.80;;;5.60;39.90;;;;;;10485344;28;20236;-66
2021/03/19 04:37:20;;;;;;;10.53;9.63;;;5.60;39.80;;;;;;10486192;28;20248;-69
2021/03/19 04:42:23;;;;;;;10.70;9.60;;;5.60;39.90;;;;;;10484415;28;20224;-69
2021/03/19 04:47:25;;;;;;;11.27;10.17;;;5.50;39.70;;;;;;10486693;28;20224;-65
2021/03/19 04:52:28;;;;;;;11.30;10.10;;;5.60;39.90;;;;;;10485577;28;20315;-71
2021/03/19 04:57:30;;;;;;;9.93;8.70;;;5.50;40.00;;;;;;10490637;28;20225;-71
2021/03/19 05:02:34;;;;;;;11.60;10.50;;;5.50;40.70;;;;;;10484767;28;20234;-71
2021/03/19 05:07:38;;;;;;;11.53;10.43;;;5.50;40.10;;;;;;10489752;28;20228;-66
2021/03/19 05:12:41;;;;;;;10.37;9.37;;;5.50;40.10;;;;;;10482551;28;20224;-68
2021/03/19 05:17:43;;;;;;;10.70;9.60;;;5.50;40.10;;;;;;10484580;28;20615;-68
2021/03/19 05:22:46;;;;;;;11.30;10.20;;;5.60;40.10;;;;;;10489542;28;20654;-66
2021/03/19 05:27:50;;;;;;;10.30;9.40;;;5.60;40.10;;;;;;10486962;28;20235;-67
2021/03/19 05:32:53;;;;;;;11.03;10.03;;;5.60;40.00;;;;;;10495927;28;20223;-69
2021/03/19 05:37:57;;;;;;;11.17;10.10;;;5.60;40.10;;;;;;10490108;28;20228;-68
2021/03/19 05:43:28;;;;;;;11.63;10.53;;;5.70;40.30;;;;;;10484009;28;20311;-71
2021/03/19 05:48:46;;;;;;;11.73;10.53;;;5.70;40.80;;;;;;10489093;28;20239;-72
2021/03/19 05:53:55;;;;;;;11.07;9.97;;;5.70;40.70;;;;;;10493085;28;20234;-71
2021/03/19 05:58:57;;;;;;;11.30;10.10;;;5.80;40.50;;;;;;10495740;28;20299;-71
2021/03/19 06:04:00;;;;;;;13.23;12.00;;;5.80;40.10;;;;;;10492696;28;20809;-71
2021/03/19 06:09:29;;;;;;;12.53;11.37;;;5.80;40.20;;;;;;10494924;28;20217;-72
2021/03/19 06:14:44;;;;;;;14.20;12.80;;;5.80;40.90;;;;;;10489881;28;20441;-68
2021/03/19 06:19:53;;;;;;;13.00;11.80;;;5.80;40.70;;;;;;10491603;28;20224;-67
2021/03/19 06:24:59;;;;;;;12.77;11.53;;;5.80;40.50;;;;;;10494900;28;20222;-68
2021/03/19 06:30:08;;;;;;;13.30;12.00;;;5.80;40.30;;;;;;10489647;28;20239;-68
2021/03/19 06:35:25;;;;;;;13.00;11.80;;;5.70;40.30;;;;;;10495131;28;20220;-68
2021/03/19 06:40:35;;;;;;;14.13;12.77;;;5.70;40.90;;;;;;10485242;28;20327;-68
2021/03/19 06:45:38;;;;;;;15.40;13.33;;;5.70;40.80;;;;;;10477922;28;20345;-71
2021/03/19 06:50:41;;;;;;;12.83;11.53;;;5.60;40.30;;;;;;10483639;28;20307;-71
2021/03/19 06:55:46;;;;;;;14.13;12.83;;;5.60;40.60;;;;;;10487249;28;20652;-73
2021/03/19 07:00:49;;;;;;;12.70;11.40;;;5.70;40.80;;;;;;10484311;28;20224;-67
2021/03/19 07:06:21;;;;;;;14.90;13.40;;;5.80;40.70;;;;;;10488264;22;20225;-70
2021/03/19 07:11:56;;;;;;;15.07;13.67;;;5.80;41.20;;;;;;10428471;28;20413;-69
2021/03/19 07:17:14;;;;;;;15.60;14.00;;;5.90;41.40;;;;;;10398335;28;20229;-69
2021/03/19 07:22:32;;;;;;;14.73;13.33;;;5.90;41.10;;;;;;10413556;28;20334;-69
2021/03/19 07:27:54;;;;;;;14.83;13.43;;;5.90;41.20;;;;;;10405891;28;20428;-69
2021/03/19 07:33:23;;;;;;;15.10;13.60;;;5.90;41.30;;;;;;10424999;28;20227;-70
2021/03/19 07:38:48;;;;;;;16.57;14.83;;;5.90;41.30;;;;;;10472918;28;20229;-70
2021/03/19 07:44:14;;;;;;;14.73;13.23;;;5.90;41.30;;;;;;10463092;28;20320;-70
2021/03/19 07:49:43;;;;;;;16.20;14.60;;;6.00;41.40;;;;;;10444396;28;20647;-70
2021/03/19 07:54:49;;;;;;;15.53;14.03;;;6.00;41.40;;;;;;10451729;28;20262;-72
2021/03/19 08:00:03;;;;;;;15.77;14.27;;;6.00;40.90;;;;;;10450023;28;20224;-72
2021/03/19 08:05:16;;;;;;;15.73;14.07;;;6.10;41.30;;;;;;10458064;28;20308;-72
2021/03/19 08:10:24;;;;;;;14.67;13.17;;;6.20;41.10;;;;;;10448682;28;20743;-72
2021/03/19 08:15:34;;;;;;;17.70;14.30;;;6.20;40.70;;;;;;10449315;28;20268;-70
2021/03/19 08:21:07;;;;;;;14.33;12.93;;;6.20;41.00;;;;;;10453364;28;20249;-69
2021/03/19 08:26:18;;;;;;;14.57;13.27;;;6.20;40.80;;;;;;10446828;28;20232;-70
2021/03/19 08:31:30;;;;;;;15.17;13.77;;;6.20;40.60;;;;;;10448510;28;20664;-70
2021/03/19 08:36:39;;;;;;;14.87;13.40;;;6.30;41.00;;;;;;10448410;28;20586;-70
2021/03/19 08:41:46;;;;;;;13.93;12.67;;;6.30;40.90;;;;;;10450656;28;20221;-70
2021/03/19 08:46:53;;;;;;;14.17;12.80;;;6.40;40.90;;;;;;10446845;28;20229;-70
2021/03/19 08:51:58;;;;;;;13.90;12.57;;;6.40;41.00;;;;;;10460853;28;20224;-71
2021/03/19 08:57:31;;;;;;;12.53;11.33;;;6.50;40.60;;;;;;10432269;28;20232;-69
2021/03/19 09:02:51;;;;;;;12.83;11.63;;;6.50;41.70;;;;;;10445714;28;20592;-71
2021/03/19 09:08:26;;;;;;;12.20;11.10;;;6.60;41.90;;;;;;10444216;28;20283;-70
2021/03/19 09:13:29;;;;;;;12.27;11.17;;;6.70;41.30;;;;;;10442446;28;20304;-70
2021/03/19 09:18:42;;;;;;;11.00;10.10;;;6.80;40.50;;;;;;10441316;28;20609;-70
2021/03/19 09:23:58;;;;;;;11.57;10.57;;;6.80;40.80;;;;;;10448582;28;20231;-71
2021/03/19 09:29:21;;;;;;;12.13;11.03;;;6.90;40.80;;;;;;10440752;28;20247;-71
2021/03/19 09:35:15;;;;;;;11.10;10.10;;;7.00;40.90;;;;;;10457315;28;21025;-70
2021/03/19 09:40:50;;;;;;;9.40;8.60;;;7.10;41.30;;;;;;10370934;28;20225;-70
2021/03/19 09:46:04;;;;;;;10.37;9.47;;;7.20;40.90;;;;;;10450772;28;20224;-71
2021/03/19 09:51:31;;;;;;;10.53;9.60;;;7.40;40.70;;;;;;10446343;28;20223;-71
2021/03/19 09:56:39;;;;;;;10.73;9.83;;;7.50;40.40;;;;;;10456178;28;20316;-71
2021/03/19 10:01:44;;;;;;;9.60;8.80;;;7.50;40.10;;;;;;10445728;28;20229;-71
2021/03/19 10:06:48;;;;;;;9.97;9.07;;;7.50;39.80;;;;;;10450325;28;20667;-71
2021/03/19 10:12:01;;;;;;;9.50;8.63;;;7.50;40.00;;;;;;10450513;28;20227;-70
2021/03/19 10:17:33;;;;;;;8.33;7.63;;;7.50;40.40;;;;;;10451061;28;20275;-70
2021/03/19 10:22:40;;;;;;;8.83;8.03;;;7.60;40.00;;;;;;10452790;28;20766;-70
2021/03/19 10:27:45;;;;;;;7.70;7.00;;;7.70;40.00;;;;;;10456751;28;20274;-70
2021/03/19 10:32:48;;;;;;;6.60;6.10;;;7.80;39.10;;;;;;10451485;28;20530;-74
2021/03/19 10:37:57;;;;;;;6.63;6.13;;;7.80;39.10;;;;;;10451121;28;20259;-70
2021/03/19 10:43:10;;;;;;;6.37;5.87;;;7.80;39.10;;;;;;10445414;28;20248;-73
2021/03/19 10:48:35;;;;;;;12.47;7.83;;;7.90;39.20;;;;;;10450164;28;20228;-73
2021/03/19 10:53:47;;;;;;;6.43;5.93;;;8.00;39.30;;;;;;10451492;28;20303;-73
2021/03/19 10:58:53;;;;;;;7.07;6.47;;;8.10;39.10;;;;;;10445863;28;20232;-73
2021/03/19 11:03:56;;;;;;;7.27;6.57;;;8.20;39.30;;;;;;10451606;28;20253;-70
2021/03/19 11:09:07;;;;;;;7.23;6.53;;;8.30;39.30;;;;;;10443890;28;20228;-70
2021/03/19 11:14:12;;;;;;;5.50;5.10;;;8.40;39.00;;;;;;10449936;28;20224;-71
2021/03/19 11:19:17;;;;;;;22.17;8.73;;;8.60;38.60;;;;;;10453614;28;20249;-70
2021/03/19 11:24:26;;;;;;;6.00;5.50;;;8.70;38.50;;;;;;10447005;28;20338;-70
2021/03/19 11:29:33;;;;;;;6.10;5.60;;;8.80;37.70;;;;;;10445124;28;20251;-71
2021/03/19 11:34:40;;;;;;;6.13;5.63;;;8.80;38.50;;;;;;10452017;28;20245;-72
2021/03/19 11:39:57;;;;;;;7.47;6.77;;;8.90;38.20;;;;;;10453855;28;20233;-71
2021/03/19 11:45:03;;;;;;;6.43;5.73;;;9.00;37.90;;;;;;10458719;28;20379;-70
2021/03/19 11:50:30;;;;;;;5.70;5.20;;;9.00;38.10;;;;;;10446430;28;20732;-72
2021/03/19 11:55:35;;;;;;;6.57;6.07;;;9.10;37.20;;;;;;10452755;28;20228;-72
2021/03/19 12:00:39;;;;;;;8.07;7.37;;;9.10;37.30;;;;;;10451666;28;20224;-72
2021/03/19 12:05:42;;;;;;;8.83;8.13;;;9.10;38.00;;;;;;10448580;28;20244;-73
2021/03/19 12:10:45;;;;;;;9.20;8.40;;;9.10;38.10;;;;;;10454980;28;20255;-73
2021/03/19 12:15:49;;;;;;;8.63;7.83;;;8.90;38.00;;;;;;10453759;28;20230;-73
2021/03/19 12:20:52;;;;;;;5.83;5.33;;;8.70;38.10;;;;;;10452053;28;20217;-72
2021/03/19 12:25:56;;;;;;;5.23;4.83;;;8.60;38.10;;;;;;10451278;28;20248;-72
2021/03/19 12:30:59;;;;;;;6.57;6.00;;;8.60;38.20;;;;;;10444884;28;20232;-72
2021/03/19 12:36:01;;;;;;;7.67;6.97;;;8.50;38.60;;;;;;10462628;28;20241;-72
2021/03/19 12:41:05;;;;;;;7.57;6.97;;;8.50;39.00;;;;;;10443201;28;20603;-73
2021/03/19 12:46:08;;;;;;;6.90;6.30;;;8.40;38.90;;;;;;10449627;28;20229;-71
2021/03/19 12:51:11;;;;;;;7.73;7.03;;;8.40;39.50;;;;;;10448600;28;20217;-73
2021/03/19 12:56:14;;;;;;;6.40;5.90;;;8.30;39.30;;;;;;10443034;28;20236;-73
2021/03/19 13:01:19;;;;;;;6.23;5.73;;;8.20;38.90;;;;;;10447179;28;20237;-71
2021/03/19 13:06:23;;;;;;;4.20;3.90;;;8.20;39.40;;;;;;10444893;28;20570;-72
2021/03/19 13:11:27;;;;;;;4.00;3.70;;;8.00;39.30;;;;;;10456736;22;20239;-69
2021/03/19 13:16:30;;;;;;;4.03;3.73;;;7.90;39.90;;;;;;10476150;28;20307;-69
2021/03/19 13:21:33;;;;;;;3.63;3.43;;;7.70;39.00;;;;;;10476419;28;20315;-68
2021/03/19 13:26:36;;;;;;;3.07;2.87;;;7.60;38.90;;;;;;10482126;28;20255;-70
2021/03/19 13:31:40;;;;;;;2.60;2.40;;;7.50;38.80;;;;;;10482396;28;20699;-70
2021/03/19 13:36:42;;;;;;;2.40;2.20;;;7.50;38.80;;;;;;10482319;28;20221;-70
2021/03/19 13:41:45;;;;;;;2.00;1.90;;;7.30;38.70;;;;;;10470833;28;20234;-70
2021/03/19 13:46:48;;;;;;;1.60;1.50;;;7.30;38.80;;;;;;10474589;28;20251;-69
2021/03/19 13:51:51;;;;;;;1.70;1.60;;;7.30;39.10;;;;;;10493359;28;20232;-69
2021/03/19 13:57:01;;;;;;;2.00;1.90;;;7.20;39.60;;;;;;10486867;28;20596;-69
2021/03/19 14:02:04;;;;;;;2.33;2.17;;;7.30;40.00;;;;;;10473649;28;20303;-69
2021/03/19 14:07:10;;;;;;;2.23;2.13;;;7.30;39.50;;;;;;10474869;28;20708;-69
2021/03/19 14:12:13;;;;;;;2.90;2.70;;;7.30;39.50;;;;;;10484306;28;20641;-69
2021/03/19 14:17:16;;;;;;;3.30;3.00;;;7.40;40.40;;;;;;10479441;28;20310;-69
2021/03/19 14:22:18;;;;;;;3.53;3.23;;;7.40;39.70;;;;;;10474014;28;20229;-69
2021/03/19 14:27:22;;;;;;;4.00;3.60;;;7.50;39.30;;;;;;10477819;28;20228;-69
2021/03/19 14:32:25;;;;;;;3.20;3.00;;;7.50;39.90;;;;;;10482215;28;20636;-69
2021/03/19 14:37:27;;;;;;;3.87;3.57;;;7.60;39.80;;;;;;10479318;28;20231;-69
2021/03/19 14:42:31;;;;;;;3.80;3.50;;;7.70;39.70;;;;;;10479845;28;20248;-69
2021/03/19 14:47:33;;;;;;;4.90;4.50;;;7.80;39.90;;;;;;10493252;28;20224;-69
2021/03/19 14:52:36;;;;;;;4.30;4.00;;;7.70;39.30;;;;;;10490326;28;20919;-69
2021/03/19 14:57:40;;;;;;;3.83;3.53;;;7.60;39.40;;;;;;10488431;28;20247;-69
2021/03/19 15:02:42;;;;;;;3.83;3.53;;;7.40;38.80;;;;;;10482472;28;20585;-69
2021/03/19 15:07:46;;;;;;;3.90;3.60;;;7.20;38.90;;;;;;10490909;28;20228;-69
2021/03/19 15:12:49;;;;;;;4.27;3.97;;;7.10;39.20;;;;;;10480679;28;20217;-69
2021/03/19 15:17:52;;;;;;;5.20;4.80;;;7.00;39.50;;;;;;10483794;28;20305;-69
2021/03/19 15:22:55;;;;;;;5.37;4.97;;;7.00;39.50;;;;;;10486974;28;20224;-69
2021/03/19 15:27:58;;;;;;;4.50;4.20;;;6.90;39.70;;;;;;10488793;28;20723;-69
2021/03/19 15:33:00;;;;;;;4.17;3.87;;;6.80;39.70;;;;;;10490216;28;20220;-69
2021/03/19 15:38:04;;;;;;;4.20;3.90;;;6.80;39.80;;;;;;10482649;28;20231;-69
2021/03/19 15:43:08;;;;;;;4.37;4.03;;;6.80;40.10;;;;;;10483735;28;20302;-70
2021/03/19 15:48:11;;;;;;;4.13;3.70;;;6.80;40.20;;;;;;10484765;28;20252;-70
2021/03/19 15:53:17;;;;;;;4.80;4.50;;;6.80;40.30;;;;;;10470882;28;20224;-70
2021/03/19 15:58:22;;;;;;;4.20;3.90;;;6.90;40.50;;;;;;10484070;28;20314;-70
2021/03/19 16:03:25;;;;;;;4.33;4.03;;;7.00;40.40;;;;;;10477322;28;20224;-69
2021/03/19 16:08:30;;;;;;;4.10;3.80;;;7.00;40.40;;;;;;10472324;28;20703;-70
2021/03/19 16:13:33;;;;;;;3.70;3.40;;;7.00;40.10;;;;;;10470795;28;20231;-70
2021/03/19 16:18:36;;;;;;;3.50;3.20;;;7.00;40.20;;;;;;10481032;28;20220;-70
2021/03/19 16:23:39;;;;;;;2.83;2.63;;;7.00;40.20;;;;;;10481447;28;20236;-69
2021/03/19 16:28:44;;;;;;;2.40;2.30;;;6.90;39.70;;;;;;10480887;28;20593;-70
2021/03/19 16:33:46;;;;;;;2.43;2.23;;;6.80;39.70;;;;;;10478814;28;20566;-69
2021/03/19 16:38:54;;;;;;;2.40;2.20;;;6.70;39.70;;;;;;10476363;28;20237;-69
2021/03/19 16:43:57;;;;;;;65.00;5.10;;;6.60;39.60;;;;;;10483348;28;20230;-70
2021/03/19 16:48:59;;;;;;;2.60;2.40;;;6.60;39.50;;;;;;10472064;28;20224;-70
2021/03/19 16:54:03;;;;;;;2.50;2.30;;;6.50;39.60;;;;;;10478031;28;20228;-70
2021/03/19 16:59:06;;;;;;;2.90;2.60;;;6.40;39.60;;;;;;10471559;28;20224;-69
2021/03/19 17:04:08;;;;;;;2.60;2.40;;;6.40;39.70;;;;;;10472421;28;20599;-69
2021/03/19 17:09:10;;;;;;;2.70;2.50;;;6.40;39.80;;;;;;10488603;28;20231;-70
2021/03/19 17:14:14;;;;;;;2.67;2.47;;;6.30;39.80;;;;;;10486242;28;20228;-70
2021/03/19 17:19:16;;;;;;;2.80;2.60;;;6.30;40.00;;;;;;10489652;28;20224;-70
2021/03/19 17:24:18;;;;;;;2.80;2.60;;;6.30;39.80;;;;;;10491715;28;20246;-70
2021/03/19 17:29:22;;;;;;;2.93;2.73;;;6.30;39.70;;;;;;10494543;28;20237;-70
2021/03/19 17:34:25;;;;;;;3.63;2.87;;;6.30;40.40;;;;;;10494730;28;20227;-70
2021/03/19 17:39:27;;;;;;;3.43;3.10;;;6.30;39.50;;;;;;10478186;28;20228;-69
2021/03/19 17:44:30;;;;;;;3.10;2.90;;;6.30;39.50;;;;;;10495295;28;20589;-69
2021/03/19 17:49:32;;;;;;;3.23;2.97;;;6.30;39.50;;;;;;10489991;28;20224;-67
2021/03/19 17:54:34;;;;;;;3.33;2.93;;;6.30;39.50;;;;;;10484973;28;20228;-67
2021/03/19 17:59:38;;;;;;;3.30;2.57;;;6.30;39.60;;;;;;10490440;28;20228;-68
2021/03/19 18:04:40;;;;;;;3.37;3.07;;;6.40;39.80;;;;;;10490206;28;20307;-67
2021/03/19 18:09:51;;;;;;;3.40;3.10;;;6.40;39.50;;;;;;10483819;28;20256;-67
2021/03/19 18:14:54;;;;;;;3.57;3.27;;;6.30;39.20;;;;;;10481627;28;20220;-67
2021/03/19 18:19:56;;;;;;;3.30;3.03;;;6.40;39.10;;;;;;10480389;28;20319;-68
2021/03/19 18:24:58;;;;;;;4.13;3.83;;;6.20;39.10;;;;;;10480762;28;20601;-67
2021/03/19 18:30:01;;;;;;;3.53;3.23;;;6.30;39.10;;;;;;10488592;28;20254;-67
2021/03/19 18:35:05;;;;;;;5.07;3.57;;;6.20;39.00;;;;;;10492614;28;20216;-68
2021/03/19 18:40:10;;;;;;;4.00;3.60;;;6.30;38.90;;;;;;10478871;28;20666;-67
2021/03/19 18:45:15;;;;;;;4.07;3.77;;;6.20;38.70;;;;;;10481076;28;20243;-72
2021/03/19 18:50:19;;;;;;;3.80;3.50;;;6.20;38.70;;;;;;10484600;28;20594;-67
2021/03/19 18:55:22;;;;;;;6.87;6.10;;;6.20;38.70;;;;;;10493477;28;20228;-70
2021/03/19 19:00:28;;;;;;;4.70;4.30;;;6.20;38.70;;;;;;10486204;28;20225;-67
2021/03/19 19:05:31;;;;;;;6.20;5.60;;;6.20;38.70;;;;;;10489596;28;20232;-69
2021/03/19 19:10:34;;;;;;;6.50;5.90;;;6.20;38.80;;;;;;10561364;22;20238;-76
2021/03/19 19:15:38;;;;;;;4.50;4.10;;;6.20;38.70;;;;;;10564700;28;20832;-76
2021/03/19 19:20:43;;;;;;;4.33;3.93;;;6.20;38.60;;;;;;10573778;28;20241;-74
2021/03/19 19:25:45;;;;;;;4.30;3.90;;;6.20;38.70;;;;;;10569976;28;20223;-74
2021/03/19 19:30:49;;;;;;;4.77;4.37;;;6.20;38.70;;;;;;10569848;27;20222;-74
2021/03/19 19:35:58;;;;;;;4.30;3.90;;;6.10;38.50;;;;;;10574859;27;20309;-75
2021/03/19 19:41:04;;;;;;;4.33;3.93;;;6.10;39.30;;;;;;10574932;27;20248;-75
2021/03/19 19:46:14;;;;;;;4.27;3.87;;;6.00;38.60;;;;;;10568311;27;20227;-76
2021/03/19 19:51:17;;;;;;;4.63;3.83;;;6.00;38.60;;;;;;10558763;28;20274;-77
2021/03/19 19:56:23;;;;;;;5.20;4.23;;;6.00;38.70;;;;;;10567072;28;20223;-74
2021/03/19 20:01:31;;;;;;;4.80;4.30;;;6.00;38.90;;;;;;10576027;28;20227;-74
2021/03/19 20:06:35;;;;;;;4.77;4.37;;;6.00;38.80;;;;;;10571481;28;20276;-75
2021/03/19 20:11:37;;;;;;;4.33;3.93;;;6.00;38.90;;;;;;10572794;27;20229;-74
2021/03/19 20:16:40;;;;;;;4.40;4.00;;;5.90;38.70;;;;;;10574727;27;20237;-74
2021/03/19 20:21:44;;;;;;;4.70;4.20;;;6.00;38.80;;;;;;10572988;27;20775;-74
2021/03/19 20:26:48;;;;;;;4.83;4.30;;;5.90;38.70;;;;;;10574700;28;20252;-74
2021/03/19 20:31:54;;;;;;;4.27;3.87;;;5.90;38.80;;;;;;10574487;28;20268;-77
2021/03/19 20:37:00;;;;;;;4.77;4.27;;;5.90;38.70;;;;;;10573864;28;20306;-74
2021/03/19 20:42:03;;;;;;;4.57;3.97;;;5.90;38.60;;;;;;10568766;28;20218;-74
2021/03/19 20:47:08;;;;;;;4.60;4.20;;;5.90;38.60;;;;;;10569408;27;20227;-75
2021/03/19 20:52:11;;;;;;;4.27;3.87;;;5.80;38.40;;;;;;10575579;28;20295;-75
2021/03/19 20:57:13;;;;;;;4.40;4.00;;;5.90;38.60;;;;;;10574086;28;20249;-73
2021/03/19 21:02:20;;;;;;;4.40;4.00;;;5.80;38.50;;;;;;10575470;28;20794;-73
2021/03/19 21:07:25;;;;;;;3.57;3.20;;;5.70;38.30;;;;;;10573417;28;20223;-73
2021/03/19 21:12:31;;;;;;;3.63;3.33;;;5.70;38.20;;;;;;10576182;27;20233;-74
2021/03/19 21:17:34;;;;;;;3.60;3.30;;;5.70;37.90;;;;;;10566244;27;20733;-74
2021/03/19 21:22:36;;;;;;;3.83;3.50;;;5.60;37.80;;;;;;10573048;27;20288;-74
2021/03/19 21:27:39;;;;;;;3.80;3.40;;;5.70;38.00;;;;;;10571848;28;20265;-75
2021/03/19 21:32:45;;;;;;;3.50;3.20;;;5.60;37.90;;;;;;10560180;28;20230;-75
2021/03/19 21:37:49;;;;;;;3.80;3.30;;;5.50;37.70;;;;;;10580078;27;20227;-75
2021/03/19 21:42:51;;;;;;;4.17;3.17;;;5.50;37.70;;;;;;10563636;27;20222;-75
2021/03/19 21:47:55;;;;;;;3.53;3.23;;;5.60;37.70;;;;;;10564899;27;20234;-75
2021/03/19 21:52:57;;;;;;;3.73;3.40;;;5.50;37.60;;;;;;10562959;28;20230;-75
2021/03/19 21:58:00;;;;;;;3.83;3.53;;;5.30;37.40;;;;;;10560800;28;20649;-75
2021/03/19 22:03:04;;;;;;;3.60;3.30;;;5.30;37.50;;;;;;10558711;28;20949;-75
2021/03/19 22:08:07;;;;;;;4.83;3.30;;;5.20;37.40;;;;;;10566283;28;20222;-75
2021/03/19 22:13:09;;;;;;;3.83;3.47;;;5.10;37.50;;;;;;10567124;28;20902;-75
2021/03/19 22:18:13;;;;;;;3.57;3.27;;;5.30;37.80;;;;;;10564137;27;20228;-75
2021/03/19 22:23:15;;;;;;;3.80;3.50;;;5.10;37.50;;;;;;10568097;27;20234;-75
2021/03/19 22:28:17;;;;;;;3.23;3.03;;;5.10;37.50;;;;;;10568872;27;20235;-75
2021/03/19 22:33:21;;;;;;;3.50;3.20;;;5.00;37.40;;;;;;10569905;28;20321;-75
2021/03/19 22:38:24;;;;;;;3.20;2.97;;;5.00;37.50;;;;;;10570220;28;20288;-75
2021/03/19 22:43:29;;;;;;;3.60;3.30;;;5.00;37.50;;;;;;10568945;27;20227;-75
2021/03/19 22:48:33;;;;;;;3.60;3.30;;;4.90;37.40;;;;;;10568247;27;20237;-76
2021/03/19 22:53:35;;;;;;;3.10;2.90;;;4.90;37.50;;;;;;10569457;28;20314;-76
2021/03/19 22:58:44;;;;;;;3.60;3.30;;;4.90;37.60;;;;;;10568268;27;20253;-75
2021/03/19 23:03:48;;;;;;;3.53;3.23;;;4.80;37.50;;;;;;10560303;27;20745;-76
2021/03/19 23:08:51;;;;;;;4.13;3.83;;;4.80;37.50;;;;;;10567536;27;20219;-76
2021/03/19 23:13:55;;;;;;;3.33;3.13;;;4.80;37.50;;;;;;10567844;27;20233;-76
2021/03/19 23:18:59;;;;;;;2.90;2.70;;;4.80;37.60;;;;;;10562963;27;20223;-75
2021/03/19 23:24:02;;;;;;;3.70;3.40;;;4.70;37.60;;;;;;10566182;27;20227;-75
2021/03/19 23:29:09;;;;;;;3.33;3.13;;;4.70;37.60;;;;;;10563976;27;20231;-76
2021/03/19 23:34:14;;;;;;;3.60;3.30;;;4.70;37.60;;;;;;10561519;27;20342;-75
2021/03/19 23:39:17;;;;;;;3.63;3.37;;;4.70;37.60;;;;;;10567077;27;20219;-76
2021/03/19 23:44:19;;;;;;;3.47;3.17;;;4.60;37.60;;;;;;10564097;27;20746;-75
2021/03/19 23:49:22;;;;;;;3.60;3.30;;;4.60;37.70;;;;;;10565068;27;20840;-75
2021/03/19 23:54:26;;;;;;;3.60;3.30;;;4.60;37.70;;;;;;10568690;28;20234;-76
2021/03/19 23:59:28;;;;;;;3.40;3.10;;;4.50;37.70;;;;;;10573072;27;20227;-76
